Time;durP1;ratioP1;P1;durP2;ratioP2;P2;SDS_P1;SDS_P2;PMS_P1;PMS_P2;Temp;Humidity;BMP_temperature;BMP_pressure;BME280_temperature;BME280_humidity;BME280_pressure;Samples;Min_cycle;Max_cycle;Signal;HPM_P1;HPM_P2
2022/09/11 00:00:55;;;;;;;2.03;1.60;;;;;;;14.90;100.00;98200.38;5099383;28;20274;-64
2022/09/11 00:03:24;;;;;;;1.60;1.50;;;;;;;14.97;100.00;98201.53;5104638;28;20534;-64
2022/09/11 00:05:51;;;;;;;2.03;1.53;;;;;;;14.96;100.00;98190.03;5100763;28;20285;-64
2022/09/11 00:08:20;;;;;;;1.83;1.43;;;;;;;14.99;100.00;98189.78;5100705;28;20265;-64
2022/09/11 00:10:48;;;;;;;1.57;1.47;;;;;;;14.96;100.00;98189.19;5101368;28;20257;-64
2022/09/11 00:13:20;;;;;;;1.60;1.50;;;;;;;15.01;100.00;98192.28;5103743;28;20256;-64
2022/09/11 00:15:48;;;;;;;3.77;1.83;;;;;;;14.97;100.00;98190.88;5100581;28;20333;-64
2022/09/11 00:18:20;;;;;;;2.27;1.50;;;;;;;14.99;100.00;98188.91;5100507;28;20234;-64
2022/09/11 00:20:49;;;;;;;4.07;1.70;;;;;;;14.91;100.00;98194.06;5103018;28;20256;-64
2022/09/11 00:23:17;;;;;;;2.40;1.57;;;;;;;14.88;100.00;98181.84;5104927;28;20226;-64
2022/09/11 00:25:45;;;;;;;1.50;1.40;;;;;;;14.85;100.00;98182.09;5104339;28;20655;-64
2022/09/11 00:28:15;;;;;;;3.13;1.80;;;;;;;14.78;100.00;98180.94;5102298;28;20235;-64
2022/09/11 00:30:42;;;;;;;2.57;1.90;;;;;;;14.70;100.00;98177.25;5106959;28;20228;-63
2022/09/11 00:33:09;;;;;;;2.00;1.80;;;;;;;14.58;100.00;98178.28;5105263;28;20226;-64
2022/09/11 00:35:36;;;;;;;1.87;1.70;;;;;;;14.45;100.00;98172.31;5104203;28;20595;-64
2022/09/11 00:38:04;;;;;;;1.90;1.60;;;;;;;14.48;100.00;98169.41;5104147;28;20570;-64
2022/09/11 00:40:31;;;;;;;3.37;2.03;;;;;;;14.45;100.00;98173.19;5106711;28;20238;-64
2022/09/11 00:42:58;;;;;;;2.20;1.80;;;;;;;14.43;100.00;98174.28;5105268;28;20652;-63
2022/09/11 00:45:27;;;;;;;2.47;1.97;;;;;;;14.51;100.00;98174.47;5103934;28;20534;-63
2022/09/11 00:47:58;;;;;;;3.17;1.90;;;;;;;14.57;100.00;98173.94;5103866;28;20265;-63
2022/09/11 00:50:29;;;;;;;2.60;1.83;;;;;;;14.58;100.00;98172.97;5107018;28;20269;-64
2022/09/11 00:53:00;;;;;;;1.97;1.60;;;;;;;14.63;100.00;98176.09;5102047;28;20314;-64
2022/09/11 00:55:34;;;;;;;3.43;1.70;;;;;;;14.63;100.00;98176.94;5103773;28;20304;-64
2022/09/11 00:58:04;;;;;;;1.80;1.70;;;;;;;14.73;100.00;98182.31;5104615;28;20279;-64
2022/09/11 01:00:31;;;;;;;4.33;2.10;;;;;;;14.67;100.00;98177.53;5106092;28;20225;-63
2022/09/11 01:02:58;;;;;;;3.43;1.63;;;;;;;14.68;100.00;98174.75;5103502;28;20691;-64
2022/09/11 01:05:27;;;;;;;1.77;1.67;;;;;;;14.70;100.00;98174.59;5103536;28;20269;-64
2022/09/11 01:07:56;;;;;;;3.07;2.03;;;;;;;14.78;100.00;98180.13;5104946;28;20268;-64
2022/09/11 01:10:35;;;;;;;2.97;1.73;;;;;;;14.85;100.00;98173.31;5105761;28;20267;-64
2022/09/11 01:13:09;;;;;;;2.60;1.73;;;;;;;14.87;100.00;98179.31;5103404;28;20266;-65
2022/09/11 01:15:42;;;;;;;2.37;1.60;;;;;;;14.92;100.00;98185.09;5103236;28;20248;-64
2022/09/11 01:18:18;;;;;;;2.87;1.60;;;;;;;14.94;100.00;98180.47;5106431;28;20230;-64
2022/09/11 01:21:01;;;;;;;2.80;1.53;;;;;;;15.02;100.00;98178.03;5101432;28;20226;-64
2022/09/11 01:23:54;;;;;;;1.77;1.57;;;;;;;15.06;100.00;98176.75;5103047;28;20258;-64
2022/09/11 01:26:51;;;;;;;2.83;1.50;;;;;;;15.07;100.00;98181.97;5103370;28;20649;-63
2022/09/11 01:29:26;;;;;;;3.87;1.43;;;;;;;15.00;100.00;98171.97;5102989;28;20238;-64
2022/09/11 01:31:57;;;;;;;3.33;1.57;;;;;;;14.85;100.00;98176.78;5099402;28;20615;-64
2022/09/11 01:34:31;;;;;;;1.93;1.40;;;;;;;14.68;100.00;98180.06;5102261;28;20249;-64
2022/09/11 01:37:04;;;;;;;2.07;1.60;;;;;;;14.62;100.00;98185.03;5102907;28;20529;-64
2022/09/11 01:39:38;;;;;;;3.77;1.80;;;;;;;14.55;100.00;98174.06;5105504;28;20261;-63
2022/09/11 01:42:13;;;;;;;1.93;1.73;;;;;;;14.49;100.00;98179.06;5103207;28;20315;-63
2022/09/11 01:44:47;;;;;;;2.13;1.67;;;;;;;14.51;100.00;98177.97;5102044;28;20595;-63
2022/09/11 01:47:17;;;;;;;1.70;1.60;;;;;;;14.52;100.00;98181.47;5100511;28;20229;-63
2022/09/11 01:49:48;;;;;;;2.33;1.43;;;;;;;14.60;100.00;98179.84;5104792;28;20225;-64
2022/09/11 01:52:19;;;;;;;3.10;1.60;;;;;;;14.72;100.00;98184.13;5102387;28;20291;-63
2022/09/11 01:54:50;;;;;;;2.70;2.00;;;;;;;14.76;100.00;98182.91;5102592;28;20662;-63
2022/09/11 01:57:24;;;;;;;3.40;1.90;;;;;;;14.86;100.00;98188.28;5105681;28;20636;-63
2022/09/11 01:59:56;;;;;;;2.73;1.90;;;;;;;14.90;100.00;98189.72;5090424;28;20747;-63
2022/09/11 02:02:32;;;;;;;2.30;2.10;;;;;;;15.06;100.00;98190.06;5102398;28;20254;-63
2022/09/11 02:05:04;;;;;;;2.70;2.13;;;;;;;15.09;100.00;98193.31;5104115;28;20225;-63
2022/09/11 02:07:34;;;;;;;2.67;2.47;;;;;;;15.11;100.00;98193.19;5103878;28;20356;-63
2022/09/11 02:10:07;;;;;;;3.67;2.20;;;;;;;15.11;100.00;98191.38;5102290;28;20226;-64
2022/09/11 02:12:40;;;;;;;3.23;2.10;;;;;;;15.15;100.00;98194.63;5100583;28;20261;-63
2022/09/11 02:15:12;;;;;;;2.73;2.10;;;;;;;15.16;100.00;98196.28;5098326;28;20249;-64
2022/09/11 02:17:47;;;;;;;3.43;2.20;;;;;;;15.22;100.00;98190.44;5101961;28;20237;-63
2022/09/11 02:20:14;;;;;;;4.83;2.33;;;;;;;15.31;100.00;98200.28;5102054;28;20311;-63
2022/09/11 02:22:41;;;;;;;3.37;2.00;;;;;;;15.35;100.00;98201.75;5103725;28;20253;-63
2022/09/11 02:25:08;;;;;;;4.20;2.47;;;;;;;15.36;100.00;98190.97;5104054;28;20268;-63
2022/09/11 02:27:35;;;;;;;4.50;2.97;;;;;;;15.36;100.00;98198.94;5101789;28;20257;-63
2022/09/11 02:30:02;;;;;;;2.60;2.40;;;;;;;15.45;100.00;98200.78;5101776;28;20230;-63
2022/09/11 02:32:32;;;;;;;3.87;2.60;;;;;;;15.52;100.00;98206.44;5103258;28;20254;-63
2022/09/11 02:34:59;;;;;;;3.50;2.90;;;;;;;15.55;100.00;98203.50;5103729;28;20722;-63
2022/09/11 02:37:40;;;;;;;4.97;3.47;;;;;;;15.55;100.00;98198.16;5100054;28;20594;-63
2022/09/11 02:40:26;;;;;;;5.13;3.30;;;;;;;15.57;100.00;98207.72;5101577;28;20226;-63
2022/09/11 02:43:08;;;;;;;3.37;3.13;;;;;;;15.60;100.00;98201.28;5099733;28;20545;-63
2022/09/11 02:45:44;;;;;;;4.87;3.90;;;;;;;15.58;100.00;98208.56;5100740;28;20311;-63
2022/09/11 02:48:32;;;;;;;3.80;3.27;;;;;;;15.60;100.00;98211.94;5102914;28;20280;-63
2022/09/11 02:51:08;;;;;;;3.40;2.83;;;;;;;15.67;100.00;98215.72;5089632;28;20291;-63
2022/09/11 02:53:43;;;;;;;4.67;3.63;;;;;;;15.61;100.00;98213.59;5101496;28;20272;-63
2022/09/11 02:56:16;;;;;;;3.83;2.90;;;;;;;15.70;100.00;98216.31;5103548;28;20288;-63
2022/09/11 02:58:47;;;;;;;5.47;3.50;;;;;;;15.70;100.00;98218.97;5102302;28;20547;-63
2022/09/11 03:01:13;;;;;;;4.80;3.50;;;;;;;15.71;100.00;98222.50;5100125;28;20323;-63
2022/09/11 03:03:44;;;;;;;4.63;3.90;;;;;;;15.60;100.00;98214.59;5099457;28;20354;-63
2022/09/11 03:06:15;;;;;;;5.07;3.20;;;;;;;15.59;100.00;98218.25;5096428;28;20264;-63
2022/09/11 03:08:42;;;;;;;3.93;3.20;;;;;;;15.56;100.00;98223.81;5089591;28;20229;-63
2022/09/11 03:11:09;;;;;;;3.93;3.27;;;;;;;15.53;100.00;98211.59;5101228;28;20306;-63
2022/09/11 03:13:36;;;;;;;4.30;3.20;;;;;;;15.58;100.00;98213.91;5101151;28;20267;-63
2022/09/11 03:16:04;;;;;;;4.50;3.40;;;;;;;15.58;100.00;98208.56;5104872;28;20256;-64
2022/09/11 03:18:31;;;;;;;3.80;3.40;;;;;;;15.58;100.00;98216.56;5089126;28;20513;-63
2022/09/11 03:20:59;;;;;;;5.23;3.70;;;;;;;15.63;100.00;98217.00;5101032;28;20230;-63
2022/09/11 03:23:26;;;;;;;5.50;3.27;;;;;;;15.61;100.00;98213.59;5100959;28;20257;-63
2022/09/11 03:25:54;;;;;;;3.80;3.00;;;;;;;15.56;100.00;98206.03;5104984;28;20259;-63
2022/09/11 03:28:21;;;;;;;5.67;4.10;;;;;;;15.57;100.00;98214.88;5089027;28;20355;-63
2022/09/11 03:30:48;;;;;;;4.60;3.50;;;;;;;15.58;100.00;98214.72;5099267;28;20308;-64
2022/09/11 03:33:16;;;;;;;5.23;4.23;;;;;;;15.56;100.00;98208.69;5101020;28;20636;-64
2022/09/11 03:35:43;;;;;;;5.77;4.03;;;;;;;15.52;100.00;98209.09;5096447;28;20238;-64
2022/09/11 03:38:11;;;;;;;4.20;3.23;;;;;;;15.51;100.00;98207.44;5088986;28;20229;-64
2022/09/11 03:40:38;;;;;;;4.03;3.63;;;;;;;15.54;100.00;98204.47;5100962;28;20252;-64
2022/09/11 03:43:05;;;;;;;4.20;3.80;;;;;;;15.49;100.00;98202.22;5100945;28;20264;-63
2022/09/11 03:45:31;;;;;;;4.03;3.70;;;;;;;15.52;100.00;98204.59;5096578;28;20264;-63
2022/09/11 03:47:58;;;;;;;6.47;3.93;;;;;;;15.52;100.00;98215.25;5100898;28;20265;-63
2022/09/11 03:50:25;;;;;;;4.50;3.83;;;;;;;15.48;100.00;98215.66;5100908;28;20311;-63
2022/09/11 03:52:52;;;;;;;5.83;3.97;;;;;;;15.43;100.00;98208.09;5101033;28;20249;-63
2022/09/11 03:55:22;;;;;;;4.70;3.80;;;;;;;15.36;100.00;98212.28;5102408;28;20276;-63
2022/09/11 03:57:49;;;;;;;4.73;4.23;;;;;;;15.42;100.00;98226.84;5103353;28;20235;-63
2022/09/11 04:00:16;;;;;;;5.80;3.90;;;;;;;15.42;100.00;98218.88;5104674;28;20641;-63
2022/09/11 04:02:43;;;;;;;7.03;4.00;;;;;;;15.47;100.00;98222.81;5104568;28;20635;-63
2022/09/11 04:05:09;;;;;;;4.53;3.90;;;;;;;15.55;100.00;98224.81;5108105;28;20645;-63
2022/09/11 04:07:37;;;;;;;4.80;3.80;;;;;;;15.60;100.00;98227.91;5105086;28;20272;-63
2022/09/11 04:10:05;;;;;;;5.57;4.37;;;;;;;15.60;100.00;98230.56;5104407;28;20291;-63
2022/09/11 04:12:33;;;;;;;5.10;4.03;;;;;;;15.62;100.00;98225.94;5104441;28;20282;-63
2022/09/11 04:15:01;;;;;;;4.57;3.43;;;;;;;15.61;100.00;98229.59;5107945;28;20288;-63
2022/09/11 04:17:29;;;;;;;4.40;4.00;;;;;;;15.56;100.00;98223.81;5104635;28;20227;-63
2022/09/11 04:19:56;;;;;;;5.73;4.10;;;;;;;15.56;100.00;98231.81;5104370;28;20260;-63
2022/09/11 04:22:23;;;;;;;5.30;4.77;;;;;;;15.52;100.00;98227.75;5102581;28;20677;-63
2022/09/11 04:24:50;;;;;;;6.53;4.80;;;;;;;15.55;100.00;98235.47;5107834;28;20224;-63
2022/09/11 04:27:17;;;;;;;5.40;4.13;;;;;;;15.63;100.00;98227.66;5104646;28;20230;-64
2022/09/11 04:29:45;;;;;;;4.77;4.10;;;;;;;15.66;100.00;98232.72;5104211;28;20277;-64
2022/09/11 04:32:12;;;;;;;4.83;4.33;;;;;;;15.69;100.00;98235.09;5104157;28;20234;-63
2022/09/11 04:34:38;;;;;;;6.43;4.93;;;;;;;15.70;100.00;98239.47;5107534;28;20279;-63
2022/09/11 04:37:05;;;;;;;6.40;4.70;;;;;;;15.72;100.00;98242.81;5104649;28;20257;-63
2022/09/11 04:39:33;;;;;;;5.10;4.60;;;;;;;15.69;100.00;98243.09;5103965;28;20261;-63
2022/09/11 04:42:00;;;;;;;5.17;4.67;;;;;;;15.68;100.00;98249.38;5103937;28;20251;-63
2022/09/11 04:44:28;;;;;;;5.83;4.63;;;;;;;15.69;100.00;98254.59;5107184;28;20228;-63
2022/09/11 04:46:56;;;;;;;8.03;6.07;;;;;;;15.63;100.00;98256.97;5103078;28;20543;-63
2022/09/11 04:49:23;;;;;;;5.07;4.37;;;;;;;15.65;100.00;98263.00;5103679;28;20262;-64
2022/09/11 04:51:49;;;;;;;5.67;4.33;;;;;;;15.64;100.00;98256.81;5103838;28;20257;-64
2022/09/11 04:54:19;;;;;;;6.10;4.70;;;;;;;15.63;100.00;98271.13;5107060;28;20223;-64
2022/09/11 04:56:47;;;;;;;6.23;5.00;;;;;;;15.71;100.00;98275.78;5104033;28;20245;-64
2022/09/11 04:59:16;;;;;;;6.23;5.20;;;;;;;15.77;100.00;98277.91;5103795;28;20233;-63
2022/09/11 05:01:45;;;;;;;8.07;5.00;;;;;;;15.73;100.00;98276.47;5103589;28;20225;-63
2022/09/11 05:04:13;;;;;;;5.10;4.67;;;;;;;15.72;100.00;98274.81;5099094;28;20227;-63
2022/09/11 05:06:41;;;;;;;6.77;4.97;;;;;;;15.74;100.00;98288.81;5091386;28;20259;-64
2022/09/11 05:09:10;;;;;;;7.43;5.40;;;;;;;15.76;100.00;98294.88;5102438;28;20649;-64
2022/09/11 05:11:38;;;;;;;5.60;4.83;;;;;;;15.74;100.00;98288.81;5103493;28;20243;-62
2022/09/11 05:14:05;;;;;;;8.33;4.93;;;;;;;15.69;100.00;98293.72;5105274;28;20335;-64
2022/09/11 05:16:33;;;;;;;5.90;5.40;;;;;;;15.64;100.00;98286.13;5103086;28;20326;-62
2022/09/11 05:19:00;;;;;;;6.47;5.27;;;;;;;15.63;100.00;98292.44;5103382;28;20583;-63
2022/09/11 05:21:28;;;;;;;6.20;5.60;;;;;;;15.58;100.00;98291.16;5103527;28;20579;-63
2022/09/11 05:23:57;;;;;;;5.67;5.10;;;;;;;15.57;100.00;98297.47;5107105;28;20315;-63
2022/09/11 05:26:26;;;;;;;5.80;4.70;;;;;;;15.57;100.00;98298.28;5103256;28;20226;-64
2022/09/11 05:28:54;;;;;;;6.07;5.47;;;;;;;15.56;100.00;98301.94;5103276;28;20229;-64
2022/09/11 05:31:22;;;;;;;6.30;5.13;;;;;;;15.63;100.00;98303.09;5103707;28;20237;-63
2022/09/11 05:33:49;;;;;;;7.33;5.80;;;;;;;15.69;100.00;98301.69;5106183;28;20269;-64
2022/09/11 05:36:16;;;;;;;5.80;5.23;;;;;;;15.76;100.00;98308.22;5103115;28;20285;-63
2022/09/11 05:38:45;;;;;;;5.37;4.87;;;;;;;15.77;100.00;98312.56;5102565;28;20226;-63
2022/09/11 05:41:14;;;;;;;9.37;5.23;;;;;;;15.80;100.00;98315.78;5102579;28;20624;-63
2022/09/11 05:43:41;;;;;;;7.30;4.90;;;;;;;15.83;100.00;98320.03;5105717;28;20231;-63
2022/09/11 05:46:11;;;;;;;6.67;5.37;;;;;;;15.84;100.00;98317.22;5102729;28;20260;-63
2022/09/11 05:48:38;;;;;;;6.13;5.53;;;;;;;15.85;100.00;98328.72;5102630;28;20635;-63
2022/09/11 05:51:08;;;;;;;6.73;5.30;;;;;;;15.93;100.00;98320.88;5103726;28;20631;-63
2022/09/11 05:53:36;;;;;;;6.17;5.13;;;;;;;15.97;100.00;98327.66;5104948;28;20503;-63
2022/09/11 05:56:09;;;;;;;6.07;5.37;;;;;;;16.03;100.00;98327.97;5102593;28;20273;-63
2022/09/11 05:58:36;;;;;;;7.80;5.80;;;;;;;16.03;100.00;98336.78;5102559;28;20226;-63
2022/09/11 06:01:06;;;;;;;5.93;4.90;;;;;;;16.04;100.00;98341.13;5104838;28;20628;-63
2022/09/11 06:03:32;;;;;;;6.97;6.20;;;;;;;16.08;100.00;98339.91;5103657;28;20228;-65
2022/09/11 06:06:00;;;;;;;6.03;5.53;;;;;;;16.13;100.00;98343.00;5100680;28;20261;-62
2022/09/11 06:08:26;;;;;;;8.83;5.37;;;;;;;16.13;100.00;98352.00;5102498;28;20234;-62
2022/09/11 06:10:53;;;;;;;6.60;5.40;;;;;;;16.09;100.00;98352.25;5104727;28;20330;-62
2022/09/11 06:13:21;;;;;;;6.50;5.67;;;;;;;16.15;100.00;98365.03;5103806;28;20640;-62
2022/09/11 06:15:49;;;;;;;6.07;5.30;;;;;;;16.17;100.00;98365.78;5102027;28;20590;-62
2022/09/11 06:18:16;;;;;;;8.73;5.40;;;;;;;16.19;100.00;98371.81;5102038;28;20272;-62
2022/09/11 06:20:43;;;;;;;8.37;5.77;;;;;;;16.22;100.00;98371.53;5104223;28;20644;-62
2022/09/11 06:23:11;;;;;;;7.73;6.23;;;;;;;16.27;100.00;98369.28;5103620;28;20256;-62
2022/09/11 06:25:38;;;;;;;6.43;5.63;;;;;;;16.28;100.00;98364.81;5101905;28;20268;-63
2022/09/11 06:28:04;;;;;;;7.17;6.20;;;;;;;16.32;100.00;98383.06;5101740;28;20239;-63
2022/09/11 06:30:33;;;;;;;6.30;5.70;;;;;;;16.31;100.00;98373.38;5103768;28;20226;-63
2022/09/11 06:33:00;;;;;;;6.57;5.90;;;;;;;16.33;100.00;98379.41;5101747;28;20268;-63
2022/09/11 06:35:27;;;;;;;6.87;5.60;;;;;;;16.34;100.00;98378.44;5101761;28;20328;-63
2022/09/11 06:37:53;;;;;;;6.37;5.67;;;;;;;16.40;100.00;98385.09;5101972;28;20624;-63
2022/09/11 06:40:20;;;;;;;5.90;5.40;;;;;;;16.46;100.00;98384.56;5102668;28;20580;-63
2022/09/11 06:42:47;;;;;;;5.87;5.23;;;;;;;16.56;100.00;98388.09;5100027;28;20278;-65
2022/09/11 06:45:13;;;;;;;6.60;5.37;;;;;;;16.60;100.00;98395.69;5099181;28;20261;-66
2022/09/11 06:47:41;;;;;;;6.83;6.13;;;;;;;16.63;100.00;98395.41;5097797;28;20222;-64
2022/09/11 06:50:09;;;;;;;7.53;5.47;;;;;;;16.59;100.00;98393.97;5100923;28;20262;-63
2022/09/11 06:52:36;;;;;;;6.53;5.67;;;;;;;16.58;100.00;98394.97;5101333;28;20700;-63
2022/09/11 06:55:03;;;;;;;5.83;5.33;;;;;;;16.64;100.00;98397.09;5100242;28;20227;-62
2022/09/11 06:57:29;;;;;;;6.97;5.73;;;;;;;16.67;100.00;98402.16;5098508;28;20238;-62
2022/09/11 06:59:57;;;;;;;6.47;5.90;;;;;;;16.74;100.00;98395.28;5101672;28;20705;-63
2022/09/11 07:02:24;;;;;;;6.80;6.10;;;;;;;16.82;100.00;98400.78;5102675;28;20744;-63
2022/09/11 07:04:52;;;;;;;6.73;5.80;;;;;;;16.88;100.00;98392.22;5100245;28;20232;-62
2022/09/11 07:07:19;;;;;;;6.17;5.57;;;;;;;16.98;100.00;98393.09;5099974;28;20230;-64
2022/09/11 07:09:45;;;;;;;6.93;6.23;;;;;;;17.04;100.00;98405.88;5101422;28;20223;-63
2022/09/11 07:12:12;;;;;;;5.63;5.00;;;;;;;17.10;100.00;98399.13;5102446;28;20321;-63
2022/09/11 07:14:40;;;;;;;6.43;5.57;;;;;;;17.17;100.00;98398.44;5099813;28;20269;-63
2022/09/11 07:17:06;;;;;;;6.23;5.27;;;;;;;17.18;100.00;98389.44;5099780;28;20246;-63
2022/09/11 07:19:34;;;;;;;6.07;4.77;;;;;;;17.17;100.00;98402.91;5100982;28;20636;-63
2022/09/11 07:22:02;;;;;;;5.67;5.10;;;;;;;17.13;100.00;98396.19;5102825;28;20235;-63
2022/09/11 07:24:28;;;;;;;6.73;6.00;;;;;;;17.04;100.00;98395.19;5097823;28;20227;-63
2022/09/11 07:26:55;;;;;;;7.13;6.37;;;;;;;17.03;100.00;98390.84;5100042;28;20345;-63
2022/09/11 07:29:22;;;;;;;6.23;5.63;;;;;;;17.02;100.00;98399.00;5112126;28;20639;-62
2022/09/11 07:31:49;;;;;;;7.27;5.83;;;;;;;17.06;100.00;98411.91;5101378;28;20286;-62
2022/09/11 07:34:15;;;;;;;7.40;4.93;;;;;;;17.18;100.00;98402.78;5111088;28;20501;-64
2022/09/11 07:36:44;;;;;;;7.97;6.03;;;;;;;17.34;100.00;98413.75;5103994;28;20284;-62
2022/09/11 07:39:12;;;;;;;7.00;6.30;;;;;;;17.45;100.00;98412.81;5104519;28;20306;-64
2022/09/11 07:41:39;;;;;;;6.20;5.60;;;;;;;17.56;100.00;98410.81;5107270;28;20226;-65
2022/09/11 07:44:06;;;;;;;6.33;5.63;;;;;;;17.62;100.00;98415.59;5103830;28;20272;-64
2022/09/11 07:46:33;;;;;;;5.33;4.83;;;;;;;17.68;100.00;98417.69;5103662;28;20314;-64
2022/09/11 07:49:00;;;;;;;7.17;5.07;;;;;;;17.78;100.00;98421.19;5103977;28;20265;-63
2022/09/11 07:51:28;;;;;;;6.97;5.40;;;;;;;17.87;100.00;98419.50;5105107;28;20267;-64
2022/09/11 07:53:56;;;;;;;5.23;4.73;;;;;;;17.95;100.00;98427.63;5103312;28;20572;-64
2022/09/11 07:56:26;;;;;;;6.03;5.30;;;;;;;18.06;100.00;98430.13;5103414;28;20565;-63
2022/09/11 07:58:54;;;;;;;5.40;4.90;;;;;;;18.21;99.82;98432.19;5104362;28;20258;-64
2022/09/11 08:01:24;;;;;;;5.40;4.90;;;;;;;18.31;100.00;98435.72;5106259;28;20237;-64
2022/09/11 08:03:55;;;;;;;6.23;5.43;;;;;;;18.37;99.03;98439.63;5103472;28;20258;-65
2022/09/11 08:06:22;;;;;;;6.20;5.00;;;;;;;18.48;99.06;98442.13;5103169;28;20632;-64
2022/09/11 08:08:53;;;;;;;6.27;5.13;;;;;;;18.66;99.09;98449.22;5105208;28;20249;-64
2022/09/11 08:11:19;;;;;;;9.43;5.60;;;;;;;18.69;96.41;98435.56;5104894;28;20222;-64
2022/09/11 08:13:50;;;;;;;5.33;4.83;;;;;;;18.61;96.18;98450.66;5103267;28;20580;-62
2022/09/11 08:16:18;;;;;;;5.60;5.10;;;;;;;18.63;96.28;98446.84;5103122;28;20570;-64
2022/09/11 08:18:45;;;;;;;6.00;5.40;;;;;;;18.68;95.93;98447.25;5103934;28;20528;-63
2022/09/11 08:21:12;;;;;;;6.43;5.73;;;;;;;18.56;97.40;98448.44;5104276;28;20294;-65
2022/09/11 08:23:40;;;;;;;6.00;5.40;;;;;;;18.62;95.92;98450.53;5103026;28;20262;-64
2022/09/11 08:26:08;;;;;;;6.37;5.40;;;;;;;18.75;96.43;98444.81;5102918;28;20218;-64
2022/09/11 08:28:36;;;;;;;6.50;5.77;;;;;;;18.61;95.14;98448.84;5105574;28;20667;-65
2022/09/11 08:31:06;;;;;;;6.10;5.47;;;;;;;18.58;96.77;98453.63;5103863;28;20642;-65
2022/09/11 08:33:33;;;;;;;6.37;5.13;;;;;;;18.61;96.51;98458.69;5102797;28;20250;-64
2022/09/11 08:36:02;;;;;;;6.20;5.57;;;;;;;18.61;94.72;98454.19;5102603;28;20647;-64
2022/09/11 08:38:29;;;;;;;7.10;6.40;;;;;;;18.74;93.56;98454.69;5105862;28;20222;-63
2022/09/11 08:40:58;;;;;;;7.07;5.20;;;;;;;18.77;94.24;98454.38;5103501;28;20258;-62
2022/09/11 08:43:32;;;;;;;5.60;5.10;;;;;;;18.86;93.51;98458.00;5101084;28;20222;-62
2022/09/11 08:46:03;;;;;;;9.23;6.20;;;;;;;19.09;92.11;98449.38;5101548;28;20227;-62
2022/09/11 08:48:35;;;;;;;7.23;5.37;;;;;;;19.38;93.78;98460.78;5105807;28;20232;-63
2022/09/11 08:51:03;;;;;;;6.07;5.47;;;;;;;19.55;89.39;98451.91;5102128;28;20223;-65
2022/09/11 08:53:32;;;;;;;7.20;5.93;;;;;;;19.56;86.59;98456.25;5102453;28;20262;-63
2022/09/11 08:56:05;;;;;;;5.97;5.37;;;;;;;19.72;85.29;98458.25;5103899;28;20227;-63
2022/09/11 08:58:43;;;;;;;6.00;5.30;;;;;;;20.01;84.63;98464.19;5103535;28;20261;-63
2022/09/11 09:01:22;;;;;;;5.70;5.20;;;;;;;20.11;84.40;98462.28;5102263;28;20616;-63
2022/09/11 09:04:16;;;;;;;5.10;4.60;;;;;;;20.10;85.93;98464.13;5103572;28;20319;-63
2022/09/11 09:06:54;;;;;;;6.37;4.90;;;;;;;19.99;88.08;98472.38;5091043;28;20637;-63
2022/09/11 09:09:32;;;;;;;6.33;4.97;;;;;;;20.00;88.33;98468.69;5102289;28;20261;-63
2022/09/11 09:12:08;;;;;;;6.20;5.60;;;;;;;20.19;84.30;98465.00;5104125;28;20226;-62
2022/09/11 09:15:07;;;;;;;6.93;5.70;;;;;;;20.39;79.74;98459.28;5090870;28;20248;-62
2022/09/11 09:17:40;;;;;;;5.67;4.53;;;;;;;20.60;77.78;98461.56;5082904;28;20281;-63
2022/09/11 09:20:13;;;;;;;5.97;5.23;;;;;;;20.79;74.91;98467.53;5104111;28;20226;-62
2022/09/11 09:22:46;;;;;;;5.90;4.70;;;;;;;20.75;75.72;98476.94;5101782;28;20705;-62
2022/09/11 09:25:15;;;;;;;5.57;5.07;;;;;;;20.38;75.57;98471.03;5101979;28;20692;-62
2022/09/11 09:27:46;;;;;;;5.30;4.80;;;;;;;20.11;75.71;98475.72;5105571;28;20523;-62
2022/09/11 09:30:16;;;;;;;5.47;4.60;;;;;;;20.12;77.33;98480.88;5089721;28;20533;-63
2022/09/11 09:32:49;;;;;;;5.70;5.20;;;;;;;20.15;77.22;98472.53;5101593;28;20237;-62
2022/09/11 09:35:22;;;;;;;5.30;4.80;;;;;;;20.18;76.47;98466.84;5102853;28;20222;-63
2022/09/11 09:37:49;;;;;;;5.53;4.83;;;;;;;20.31;77.20;98475.31;5101667;28;20740;-64
2022/09/11 09:40:18;;;;;;;5.60;5.10;;;;;;;20.45;75.19;98471.22;5101492;28;20311;-62
2022/09/11 09:43:20;;;;;;;5.53;5.03;;;;;;;20.27;76.65;98475.78;5101421;28;20234;-63
2022/09/11 09:46:04;;;;;;;4.60;4.20;;;;;;;20.06;79.83;98478.00;5099870;28;20265;-63
2022/09/11 09:48:37;;;;;;;5.20;4.73;;;;;;;19.99;80.39;98479.59;5101366;28;20268;-62
2022/09/11 09:51:05;;;;;;;5.00;4.50;;;;;;;19.88;80.82;98472.63;5102877;28;20227;-65
2022/09/11 09:53:35;;;;;;;5.07;4.57;;;;;;;19.96;82.70;98478.06;5103446;28;20254;-64
2022/09/11 09:56:04;;;;;;;5.10;4.60;;;;;;;20.16;82.43;98468.84;5100642;28;20233;-62
2022/09/11 09:58:36;;;;;;;8.43;5.30;;;;;;;20.42;80.69;98475.06;5101072;28;20284;-62
2022/09/11 10:01:07;;;;;;;5.23;4.73;;;;;;;20.81;78.22;98473.59;5104079;28;20229;-62
2022/09/11 10:03:33;;;;;;;6.13;5.53;;;;;;;21.24;74.12;98470.75;5099712;28;20302;-62
2022/09/11 10:06:01;;;;;;;5.77;5.13;;;;;;;21.64;73.19;98473.50;5101102;28;20262;-64
2022/09/11 10:08:32;;;;;;;4.80;4.40;;;;;;;21.89;75.00;98474.41;5100843;28;20276;-64
2022/09/11 10:11:00;;;;;;;5.67;4.67;;;;;;;21.86;72.79;98474.72;5095977;28;20268;-65
2022/09/11 10:13:29;;;;;;;5.70;4.80;;;;;;;21.67;70.79;98470.53;5100819;28;20267;-64
2022/09/11 10:15:58;;;;;;;4.83;4.43;;;;;;;21.48;71.32;98478.88;5100775;28;20280;-64
2022/09/11 10:18:35;;;;;;;6.77;5.37;;;;;;;21.13;71.59;98476.44;5100559;28;20250;-64
2022/09/11 10:21:15;;;;;;;5.53;5.00;;;;;;;20.79;74.53;98478.25;5103090;28;20225;-64
2022/09/11 10:23:48;;;;;;;5.40;4.87;;;;;;;20.58;77.04;98474.31;5100422;28;20307;-63
2022/09/11 10:26:17;;;;;;;5.63;5.03;;;;;;;20.36;77.66;98470.31;5100501;28;20222;-63
2022/09/11 10:28:45;;;;;;;5.33;4.90;;;;;;;20.21;79.00;98471.91;5096595;28;20248;-63
2022/09/11 10:31:15;;;;;;;5.90;5.00;;;;;;;20.12;80.03;98478.22;5088514;28;20539;-63
2022/09/11 10:33:48;;;;;;;5.77;5.27;;;;;;;19.99;78.39;98482.28;5100422;28;20223;-63
2022/09/11 10:36:22;;;;;;;5.60;5.03;;;;;;;19.78;77.97;98484.44;5101557;28;20312;-63
2022/09/11 10:38:51;;;;;;;6.73;6.03;;;;;;;19.82;77.11;98475.09;5102066;28;20232;-62
2022/09/11 10:41:22;;;;;;;5.23;4.73;;;;;;;19.75;77.60;98474.88;5100311;28;20222;-63
2022/09/11 10:43:54;;;;;;;6.07;5.47;;;;;;;19.79;76.71;98476.25;5100393;28;20222;-63
2022/09/11 10:46:24;;;;;;;6.53;5.80;;;;;;;19.90;75.96;98473.34;5103728;28;20256;-63
2022/09/11 10:48:54;;;;;;;6.20;5.60;;;;;;;19.96;75.24;98478.06;5100321;28;20256;-63
2022/09/11 10:51:21;;;;;;;5.27;4.87;;;;;;;20.27;75.72;98465.91;5100053;28;20259;-63
2022/09/11 10:53:59;;;;;;;5.40;4.90;;;;;;;20.73;76.06;98470.84;5100036;28;20693;-63
2022/09/11 10:56:27;;;;;;;5.67;4.70;;;;;;;21.19;75.77;98470.41;5100804;28;20565;-63
2022/09/11 10:58:59;;;;;;;4.93;4.53;;;;;;;21.54;71.38;98463.91;5100103;28;20218;-63
2022/09/11 11:01:26;;;;;;;6.83;5.60;;;;;;;21.68;68.35;98465.97;5099988;28;20297;-63
2022/09/11 11:03:52;;;;;;;5.30;4.83;;;;;;;21.67;69.18;98459.75;5101827;28;20235;-63
2022/09/11 11:06:36;;;;;;;5.00;4.50;;;;;;;21.74;67.33;98460.75;5100716;28;20254;-64
2022/09/11 11:09:23;;;;;;;6.03;4.87;;;;;;;21.81;65.08;98459.09;5100160;28;20532;-63
2022/09/11 11:12:02;;;;;;;5.30;4.87;;;;;;;21.80;65.04;98459.25;5102775;28;20268;-63
2022/09/11 11:15:03;;;;;;;4.83;4.43;;;;;;;21.71;64.83;98455.69;5088480;28;20224;-64
2022/09/11 11:17:39;;;;;;;5.13;4.63;;;;;;;21.81;65.64;98460.91;5074427;28;20314;-63
2022/09/11 11:20:25;;;;;;;4.80;4.40;;;;;;;21.94;66.79;98455.91;5101798;28;20532;-63
2022/09/11 11:23:25;;;;;;;5.10;4.67;;;;;;;22.17;65.70;98455.03;5094393;28;20229;-63
2022/09/11 11:26:07;;;;;;;6.30;4.53;;;;;;;22.26;67.00;98455.84;5096808;28;20308;-63
2022/09/11 11:28:49;;;;;;;5.03;4.37;;;;;;;21.99;67.53;98451.69;5099734;28;20265;-63
2022/09/11 11:31:30;;;;;;;5.40;4.90;;;;;;;21.57;67.72;98448.28;5100587;28;20228;-64
2022/09/11 11:34:13;;;;;;;5.77;5.27;;;;;;;21.21;71.44;98454.09;5100777;28;20228;-63
2022/09/11 11:36:44;;;;;;;4.87;4.47;;;;;;;20.77;72.89;98456.09;5099715;28;20304;-63
2022/09/11 11:39:22;;;;;;;5.83;4.80;;;;;;;20.60;70.55;98457.03;5101137;28;20529;-64
2022/09/11 11:42:02;;;;;;;5.23;4.73;;;;;;;20.50;70.22;98453.63;5100673;28;20579;-63